Time;durP1;ratioP1;P1;durP2;ratioP2;P2;SDS_P1;SDS_P2;PMS_P1;PMS_P2;Temp;Humidity;BMP_temperature;BMP_pressure;BME280_temperature;BME280_humidity;BME280_pressure;Samples;Min_cycle;Max_cycle;Signal;HPM_P1;HPM_P2
2021/12/04 00:02:24;;;;;;;;;;;20.40;23.90;;;;;;5123799;27;20319;-45
2021/12/04 00:04:52;;;;;;;;;;;21.80;22.20;;;;;;5121703;27;19934;-44
2021/12/04 00:07:18;;;;;;;;;;;22.30;21.80;;;;;;5127053;27;19923;-47
2021/12/04 00:09:46;;;;;;;;;;;22.60;21.50;;;;;;5121413;27;19930;-44
2021/12/04 00:12:12;;;;;;;;;;;22.70;21.50;;;;;;5121462;27;19928;-45
2021/12/04 00:14:38;;;;;;;;;;;22.80;21.40;;;;;;5127379;27;19933;-45
2021/12/04 00:17:04;;;;;;;;;;;22.90;21.30;;;;;;5121605;27;19924;-45
2021/12/04 00:19:30;;;;;;;;;;;23.00;21.30;;;;;;5121674;27;20320;-48
2021/12/04 00:21:56;;;;;;;;;;;22.00;22.10;;;;;;5126839;27;19931;-47
2021/12/04 00:24:22;;;;;;;;;;;19.90;25.00;;;;;;5121351;27;19972;-47
2021/12/04 00:26:48;;;;;;;;;;;21.50;22.90;;;;;;5126756;27;19923;-47
2021/12/04 00:29:14;;;;;;;;;;;22.10;22.20;;;;;;5084789;27;19938;-45
2021/12/04 00:31:45;;;;;;;;;;;22.40;21.90;;;;;;5102051;27;19927;-46
2021/12/04 00:34:11;;;;;;;;;;;22.50;21.70;;;;;;5126920;27;19928;-45
2021/12/04 00:50:10;;;;;;;;;;;21.30;23.20;;;;;;5126976;27;19946;-49
2021/12/04 00:52:36;;;;;;;;;;;22.20;22.30;;;;;;5121218;27;20370;-50
2021/12/04 00:55:02;;;;;;;;;;;22.60;21.90;;;;;;5121269;27;20275;-49
2021/12/04 00:57:28;;;;;;;;;;;22.70;21.80;;;;;;5126553;27;19923;-45
2021/12/04 00:59:54;;;;;;;;;;;22.80;21.80;;;;;;5120789;27;19931;-49
2021/12/04 01:02:20;;;;;;;;;;;22.90;21.70;;;;;;5102358;27;19935;-51
2021/12/04 01:04:46;;;;;;;;;;;21.60;22.90;;;;;;5126508;27;19924;-48
2021/12/04 01:07:11;;;;;;;;;;;20.70;24.10;;;;;;5120498;27;20287;-45
2021/12/04 01:09:37;;;;;;;;;;;21.80;22.80;;;;;;5125630;27;19923;-53
2021/12/04 01:12:03;;;;;;;;;;;22.30;22.30;;;;;;5122002;27;19986;-47
2021/12/04 01:14:31;;;;;;;;;;;22.60;22.10;;;;;;5101345;28;20010;-48
2021/12/04 01:16:57;;;;;;;;;;;22.80;22.00;;;;;;5126116;27;19929;-49
2021/12/04 01:19:23;;;;;;;;;;;22.90;21.90;;;;;;5120391;28;19928;-51
2021/12/04 01:21:49;;;;;;;;;;;23.00;21.80;;;;;;5120522;28;19938;-45
2021/12/04 01:24:15;;;;;;;;;;;23.00;21.80;;;;;;5125758;28;20014;-47
2021/12/04 01:26:41;;;;;;;;;;;23.00;22.00;;;;;;5120958;28;19924;-50
2021/12/04 01:29:07;;;;;;;;;;;22.80;22.30;;;;;;5121881;28;19923;-52
2021/12/04 01:31:32;;;;;;;;;;;22.80;22.40;;;;;;5125607;28;19928;-46
2021/12/04 01:33:58;;;;;;;;;;;22.80;22.60;;;;;;5120979;28;19924;-47
2021/12/04 01:36:24;;;;;;;;;;;22.80;22.70;;;;;;5107599;28;19980;-47
2021/12/04 01:38:50;;;;;;;;;;;22.90;22.90;;;;;;5120363;28;19930;-47
2021/12/04 01:41:16;;;;;;;;;;;22.80;23.10;;;;;;5120526;28;19924;-47
2021/12/04 01:43:42;;;;;;;;;;;23.00;23.10;;;;;;5125543;28;19974;-47
2021/12/04 01:46:08;;;;;;;;;;;23.00;23.20;;;;;;5121000;28;20176;-45
2021/12/04 01:48:33;;;;;;;;;;;22.90;23.50;;;;;;5122209;27;19934;-45
2021/12/04 01:50:59;;;;;;;;;;;23.00;23.60;;;;;;5130213;27;19938;-45
2021/12/04 01:53:25;;;;;;;;;;;23.00;23.80;;;;;;5124631;27;20227;-47
2021/12/04 01:55:51;;;;;;;;;;;23.10;23.90;;;;;;5111476;27;20414;-48
2021/12/04 01:58:17;;;;;;;;;;;23.10;24.30;;;;;;5124175;27;19972;-49
2021/12/04 02:00:43;;;;;;;;;;;23.00;24.60;;;;;;5123914;27;19927;-49
2021/12/04 02:03:12;;;;;;;;;;;23.00;24.90;;;;;;5129775;27;19931;-46
2021/12/04 02:05:38;;;;;;;;;;;23.00;25.00;;;;;;5124525;27;19931;-46
2021/12/04 02:08:08;;;;;;;;;;;23.10;25.10;;;;;;5124325;27;20259;-47
2021/12/04 02:10:33;;;;;;;;;;;23.10;25.20;;;;;;5129792;27;20018;-47
2021/12/04 02:12:59;;;;;;;;;;;23.10;25.30;;;;;;5124020;27;20010;-46
2021/12/04 02:15:25;;;;;;;;;;;23.10;25.30;;;;;;5128928;27;20409;-54
2021/12/04 02:17:51;;;;;;;;;;;23.00;25.50;;;;;;5125298;27;19923;-48
2021/12/04 02:20:18;;;;;;;;;;;23.10;25.60;;;;;;5123660;27;19930;-47
2021/12/04 02:22:44;;;;;;;;;;;23.00;25.70;;;;;;5129588;27;19927;-47
2021/12/04 02:25:10;;;;;;;;;;;23.10;25.70;;;;;;5123834;27;19939;-46
2021/12/04 02:27:36;;;;;;;;;;;23.00;25.70;;;;;;5124000;27;19927;-46
2021/12/04 02:30:06;;;;;;;;;;;23.10;25.60;;;;;;5129477;27;19976;-48
2021/12/04 02:32:32;;;;;;;;;;;23.10;25.70;;;;;;5123473;27;19927;-49
2021/12/04 02:34:58;;;;;;;;;;;23.10;25.70;;;;;;5123688;27;20018;-48
2021/12/04 02:37:24;;;;;;;;;;;23.00;25.80;;;;;;5128769;27;19923;-46
2021/12/04 02:39:57;;;;;;;;;;;23.10;25.80;;;;;;5123478;27;20290;-45
2021/12/04 02:42:23;;;;;;;;;;;23.10;25.80;;;;;;5129367;27;19924;-46
2021/12/04 02:44:49;;;;;;;;;;;23.10;25.90;;;;;;5123578;27;20401;-45
2021/12/04 02:47:15;;;;;;;;;;;23.10;25.90;;;;;;5123897;27;20017;-45
2021/12/04 02:49:41;;;;;;;;;;;23.10;25.80;;;;;;5110511;27;20014;-51
2021/12/04 02:52:08;;;;;;;;;;;22.80;26.20;;;;;;5105038;27;19930;-50
2021/12/04 02:54:34;;;;;;;;;;;22.70;26.30;;;;;;5105216;27;19927;-53
2021/12/04 02:57:00;;;;;;;;;;;22.70;26.40;;;;;;5128305;27;19934;-49
2021/12/04 02:59:26;;;;;;;;;;;22.70;26.40;;;;;;5122641;27;20141;-49
2021/12/04 03:01:54;;;;;;;;;;;22.70;26.30;;;;;;5128282;27;19927;-55
2021/12/04 03:04:22;;;;;;;;;;;22.70;26.40;;;;;;5125208;27;20370;-50
2021/12/04 03:06:48;;;;;;;;;;;22.70;26.40;;;;;;5123220;27;19924;-48
2021/12/04 03:09:14;;;;;;;;;;;22.70;26.30;;;;;;5128269;27;19938;-49
2021/12/04 03:11:41;;;;;;;;;;;22.60;26.40;;;;;;5122154;27;21297;-50
2021/12/04 03:14:07;;;;;;;;;;;22.70;26.40;;;;;;5104309;27;19923;-48
2021/12/04 03:16:33;;;;;;;;;;;22.70;26.30;;;;;;5128315;27;19970;-49
2021/12/04 03:18:59;;;;;;;;;;;22.70;26.30;;;;;;5123208;27;20306;-48
2021/12/04 03:21:25;;;;;;;;;;;22.70;26.30;;;;;;5122921;27;19927;-52
2021/12/04 03:26:20;;;;;;;;;;;22.70;26.40;;;;;;5122415;27;20025;-52
2021/12/04 03:28:46;;;;;;;;;;;22.70;26.50;;;;;;5128084;27;19927;-48
2021/12/04 03:31:37;;;;;;;;;;;22.70;26.50;;;;;;5122616;27;19927;-48
2021/12/04 03:42:16;;;;;;;;;;;22.70;26.50;;;;;;5122645;27;19930;-49
2021/12/04 03:44:42;;;;;;;;;;;22.70;26.50;;;;;;5122598;27;20371;-47
2021/12/04 03:47:09;;;;;;;;;;;22.70;26.60;;;;;;5127626;27;20321;-51
2021/12/04 03:49:35;;;;;;;;;;;22.70;26.60;;;;;;5122385;27;19924;-50
2021/12/04 03:52:01;;;;;;;;;;;22.70;26.60;;;;;;5127136;27;20397;-47
2021/12/04 03:54:28;;;;;;;;;;;22.80;26.60;;;;;;5122364;27;19930;-47
2021/12/04 03:57:03;;;;;;;;;;;22.80;26.60;;;;;;5122085;27;20291;-51
2021/12/04 03:59:29;;;;;;;;;;;22.80;26.60;;;;;;5127499;27;19975;-52
2021/12/04 04:01:55;;;;;;;;;;;22.80;26.70;;;;;;5122207;27;20441;-46
2021/12/04 04:04:20;;;;;;;;;;;22.80;26.70;;;;;;5121570;27;19924;-50
2021/12/04 04:06:46;;;;;;;;;;;22.80;26.70;;;;;;5107712;27;20423;-48
2021/12/04 04:09:12;;;;;;;;;;;22.80;26.70;;;;;;5121613;27;19927;-48
2021/12/04 04:11:38;;;;;;;;;;;22.80;26.70;;;;;;5124083;27;20014;-51
2021/12/04 04:14:04;;;;;;;;;;;22.80;26.70;;;;;;5125216;27;20022;-49
2021/12/04 04:16:30;;;;;;;;;;;22.80;26.80;;;;;;5121782;27;20381;-48
2021/12/04 04:18:56;;;;;;;;;;;22.80;26.80;;;;;;5127520;27;20165;-47
2021/12/04 04:21:21;;;;;;;;;;;22.80;26.90;;;;;;5121327;27;19924;-48
2021/12/04 04:23:47;;;;;;;;;;;22.80;26.90;;;;;;5121345;27;19923;-48
2021/12/04 04:26:13;;;;;;;;;;;22.80;27.00;;;;;;5126853;27;19934;-45
2021/12/04 04:28:39;;;;;;;;;;;22.90;26.90;;;;;;5120771;27;19986;-46
2021/12/04 04:31:05;;;;;;;;;;;22.90;26.80;;;;;;5121823;27;20370;-55
2021/12/04 04:33:36;;;;;;;;;;;22.80;27.00;;;;;;5127247;27;19923;-47
2021/12/04 04:36:56;;;;;;;;;;;22.90;26.80;;;;;;5121449;27;19924;-45
2021/12/04 05:11:41;;;;;;;;;;;22.90;26.90;;;;;;5121061;27;19933;-47
2021/12/04 05:14:08;;;;;;;;;;;22.90;26.90;;;;;;5120963;27;20047;-47
2021/12/04 05:16:51;;;;;;;;;;;23.00;26.90;;;;;;5126528;27;19930;-46
2021/12/04 05:22:01;;;;;;;;;;;22.90;27.00;;;;;;5120912;27;19928;-46
2021/12/04 05:24:27;;;;;;;;;;;23.00;26.90;;;;;;5131806;27;19931;-49
2021/12/04 05:26:53;;;;;;;;;;;22.90;27.00;;;;;;5127658;27;19923;-48
2021/12/04 05:29:19;;;;;;;;;;;22.90;27.00;;;;;;5127743;27;19931;-46
2021/12/04 05:31:44;;;;;;;;;;;23.00;27.00;;;;;;5133026;27;19986;-46
2021/12/04 05:34:10;;;;;;;;;;;22.90;27.10;;;;;;5127704;27;19924;-46
2021/12/04 05:36:36;;;;;;;;;;;23.00;27.10;;;;;;5132965;27;20287;-44
2021/12/04 05:39:02;;;;;;;;;;;23.00;27.00;;;;;;5127338;27;19987;-48
2021/12/04 05:41:28;;;;;;;;;;;23.10;27.00;;;;;;5127483;27;19931;-45
2021/12/04 05:43:54;;;;;;;;;;;23.10;26.90;;;;;;5132383;27;19972;-45
2021/12/04 05:46:25;;;;;;;;;;;23.10;26.90;;;;;;5127874;27;19924;-53
2021/12/04 05:48:56;;;;;;;;;;;22.70;27.60;;;;;;5127654;27;20364;-53
2021/12/04 05:56:44;;;;;;;;;;;22.60;27.80;;;;;;5127458;27;20445;-51
2021/12/04 05:59:10;;;;;;;;;;;22.60;27.80;;;;;;5133037;27;19936;-52
2021/12/04 06:01:36;;;;;;;;;;;22.60;27.90;;;;;;5126999;27;19924;-51
2021/12/04 06:04:01;;;;;;;;;;;22.60;27.80;;;;;;5127585;27;20373;-50
2021/12/04 06:06:27;;;;;;;;;;;22.60;27.80;;;;;;5132951;27;19934;-50
2021/12/04 06:08:53;;;;;;;;;;;22.60;27.80;;;;;;5127447;27;19980;-51
2021/12/04 06:11:19;;;;;;;;;;;22.60;27.80;;;;;;5132870;27;19923;-49
2021/12/04 06:13:45;;;;;;;;;;;22.60;27.90;;;;;;5127131;27;19963;-50
2021/12/04 06:16:11;;;;;;;;;;;22.70;27.70;;;;;;5126945;27;19930;-49
2021/12/04 06:18:37;;;;;;;;;;;22.60;27.80;;;;;;5132305;27;20392;-52
2021/12/04 06:23:47;;;;;;;;;;;22.70;27.80;;;;;;5111792;27;19946;-48
2021/12/04 06:26:13;;;;;;;;;;;22.60;27.90;;;;;;5132399;27;19979;-50
2021/12/04 06:28:39;;;;;;;;;;;22.60;27.90;;;;;;5126965;27;19931;-48
2021/12/04 06:31:07;;;;;;;;;;;22.70;28.00;;;;;;5108889;27;19923;-54
2021/12/04 06:33:33;;;;;;;;;;;22.70;28.00;;;;;;5132220;27;19933;-47
2021/12/04 06:35:59;;;;;;;;;;;22.80;28.00;;;;;;5123740;27;19974;-48
2021/12/04 06:38:25;;;;;;;;;;;22.80;28.00;;;;;;5128776;27;19930;-49
2021/12/04 06:40:50;;;;;;;;;;;22.70;28.10;;;;;;5124072;27;19924;-48
2021/12/04 06:43:17;;;;;;;;;;;22.70;28.20;;;;;;5123813;27;19927;-49
2021/12/04 06:45:44;;;;;;;;;;;22.70;28.20;;;;;;5129172;27;19931;-49
2021/12/04 06:48:22;;;;;;;;;;;22.80;28.30;;;;;;5123805;27;19923;-50
2021/12/04 06:51:03;;;;;;;;;;;22.80;28.30;;;;;;5123359;27;20521;-48
2021/12/04 06:53:46;;;;;;;;;;;22.70;28.60;;;;;;5125731;27;20002;-50
2021/12/04 06:56:12;;;;;;;;;;;22.70;28.50;;;;;;5119644;27;19923;-50
2021/12/04 06:58:39;;;;;;;;;;;22.80;28.60;;;;;;5123077;27;19979;-48
2021/12/04 07:01:05;;;;;;;;;;;22.70;28.60;;;;;;5128918;27;20526;-52
2021/12/04 07:03:31;;;;;;;;;;;22.80;28.70;;;;;;5123397;27;20022;-51
2021/12/04 07:05:56;;;;;;;;;;;22.80;28.60;;;;;;5123601;27;19923;-49
2021/12/04 07:08:22;;;;;;;;;;;22.80;28.70;;;;;;5128382;27;19930;-48
2021/12/04 07:10:48;;;;;;;;;;;22.80;28.80;;;;;;5122987;27;19929;-50
2021/12/04 07:13:14;;;;;;;;;;;22.80;28.80;;;;;;5128376;27;20378;-51
2021/12/04 07:15:43;;;;;;;;;;;22.80;28.80;;;;;;5122469;27;20046;-49
2021/12/04 07:18:09;;;;;;;;;;;22.80;28.90;;;;;;5105110;27;19971;-48
2021/12/04 07:20:34;;;;;;;;;;;22.90;28.90;;;;;;5128519;27;19927;-51
2021/12/04 07:23:00;;;;;;;;;;;22.90;28.90;;;;;;5122940;27;19927;-49
2021/12/04 07:25:26;;;;;;;;;;;22.90;28.90;;;;;;5122929;27;20174;-48
2021/12/04 07:27:52;;;;;;;;;;;22.90;28.90;;;;;;5128061;27;19934;-50
2021/12/04 07:30:18;;;;;;;;;;;22.90;29.00;;;;;;5122637;27;19930;-48
2021/12/04 07:32:45;;;;;;;;;;;22.90;29.00;;;;;;5109764;27;20282;-47
2021/12/04 07:35:10;;;;;;;;;;;22.90;29.00;;;;;;5122203;27;20314;-50
2021/12/04 07:37:36;;;;;;;;;;;22.90;29.10;;;;;;5122864;27;20287;-50
2021/12/04 07:40:02;;;;;;;;;;;23.00;29.10;;;;;;5128078;27;19931;-49
2021/12/04 07:42:28;;;;;;;;;;;22.90;29.20;;;;;;5122530;27;19934;-48
2021/12/04 07:44:54;;;;;;;;;;;22.90;29.30;;;;;;5122531;27;20011;-48
2021/12/04 07:47:20;;;;;;;;;;;23.00;29.30;;;;;;5126936;27;19923;-48
2021/12/04 07:49:45;;;;;;;;;;;23.00;29.40;;;;;;5122209;27;19990;-50
2021/12/04 07:52:11;;;;;;;;;;;23.00;29.40;;;;;;5126839;27;20280;-53
2021/12/04 07:54:38;;;;;;;;;;;23.10;29.40;;;;;;5123117;27;19975;-50
2021/12/04 07:57:04;;;;;;;;;;;23.00;29.60;;;;;;5122632;27;19923;-48
2021/12/04 07:59:29;;;;;;;;;;;23.00;29.60;;;;;;5127657;27;19923;-47
2021/12/04 08:01:56;;;;;;;;;;;23.00;29.60;;;;;;5122260;27;20301;-51
2021/12/04 08:04:22;;;;;;;;;;;23.00;29.70;;;;;;5122193;27;20009;-45
2021/12/04 08:06:49;;;;;;;;;;;23.00;29.70;;;;;;5127303;27;19923;-46
2021/12/04 08:09:15;;;;;;;;;;;23.10;29.70;;;;;;5121993;27;20056;-46
2021/12/04 08:11:40;;;;;;;;;;;23.10;29.70;;;;;;5122859;27;19925;-59
2021/12/04 08:14:06;;;;;;;;;;;23.00;30.00;;;;;;5126562;27;19923;-52
2021/12/04 08:16:32;;;;;;;;;;;22.90;30.30;;;;;;5122062;27;19950;-51
2021/12/04 08:18:58;;;;;;;;;;;22.90;30.30;;;;;;5109005;27;19931;-51
2021/12/04 08:21:24;;;;;;;;;;;22.90;30.40;;;;;;5121833;27;19923;-52
2021/12/04 08:23:49;;;;;;;;;;;22.80;30.50;;;;;;5121564;27;19938;-52
2021/12/04 08:26:15;;;;;;;;;;;22.80;30.50;;;;;;5126976;27;20422;-49
2021/12/04 08:28:41;;;;;;;;;;;22.90;30.50;;;;;;5121121;27;19923;-49
2021/12/04 08:31:07;;;;;;;;;;;22.80;30.60;;;;;;5121275;27;19924;-49
2021/12/04 08:33:33;;;;;;;;;;;23.00;30.50;;;;;;5127024;27;20351;-48
2021/12/04 08:36:00;;;;;;;;;;;23.00;30.60;;;;;;5121505;27;19979;-49
2021/12/04 08:38:26;;;;;;;;;;;23.00;30.60;;;;;;5127153;27;20026;-49
2021/12/04 08:40:52;;;;;;;;;;;23.00;30.70;;;;;;5121215;27;20427;-48
2021/12/04 08:43:18;;;;;;;;;;;23.10;30.60;;;;;;5121102;27;20039;-48
2021/12/04 08:45:44;;;;;;;;;;;23.10;30.70;;;;;;5126845;27;20402;-47
2021/12/04 08:48:10;;;;;;;;;;;23.10;30.60;;;;;;5120823;27;20019;-50
2021/12/04 08:50:36;;;;;;;;;;;23.10;30.80;;;;;;5121172;27;20517;-50
2021/12/04 08:53:02;;;;;;;;;;;23.10;30.90;;;;;;5126660;27;20004;-48
2021/12/04 08:55:28;;;;;;;;;;;23.10;30.80;;;;;;5121058;27;20407;-49
2021/12/04 08:57:54;;;;;;;;;;;23.10;30.80;;;;;;5125821;27;19930;-60
2021/12/04 09:00:27;;;;;;;;;;;23.00;31.10;;;;;;5120874;27;20256;-51
2021/12/04 09:02:53;;;;;;;;;;;22.90;31.30;;;;;;5120937;27;20010;-50
2021/12/04 09:05:19;;;;;;;;;;;22.90;31.30;;;;;;5126348;27;19927;-52
2021/12/04 09:07:45;;;;;;;;;;;23.00;31.30;;;;;;5120314;27;19924;-51
2021/12/04 09:10:11;;;;;;;;;;;23.00;31.20;;;;;;5121401;27;19924;-49
2021/12/04 09:12:38;;;;;;;;;;;23.00;31.30;;;;;;5126419;27;19923;-50
2021/12/04 09:15:04;;;;;;;;;;;23.10;31.20;;;;;;5121028;27;20819;-49
2021/12/04 09:17:29;;;;;;;;;;;23.00;31.30;;;;;;5122051;27;19927;-54
2021/12/04 09:19:55;;;;;;;;;;;23.10;31.30;;;;;;5125445;28;20001;-52
2021/12/04 09:22:25;;;;;;;;;;;23.10;31.30;;;;;;5120618;28;19934;-47
2021/12/04 09:24:55;;;;;;;;;;;23.10;31.30;;;;;;5125839;28;20013;-48
2021/12/04 09:33:16;;;;;;;;;;;23.10;31.60;;;;;;5125539;28;19934;-55
2021/12/04 09:36:01;;;;;;;;;;;23.00;31.70;;;;;;5126083;28;19923;-51
2021/12/04 10:00:42;;;;;;;;;;;23.20;32.10;;;;;;5120483;28;20277;-51
2021/12/04 10:03:42;;;;;;;;;;;23.00;32.40;;;;;;5124964;28;20355;-53
2021/12/04 10:14:51;;;;;;;;;;;22.90;32.90;;;;;;5129612;27;19929;-49
2021/12/04 10:33:45;;;;;;;;;;;23.10;33.20;;;;;;5128928;27;19975;-53
2021/12/04 10:36:11;;;;;;;;;;;23.00;33.20;;;;;;5105184;27;20024;-58
2021/12/04 10:38:44;;;;;;;;;;;23.20;33.20;;;;;;5128739;27;19975;-53
2021/12/04 10:41:11;;;;;;;;;;;23.00;33.50;;;;;;5126793;27;19929;-52
2021/12/04 10:43:37;;;;;;;;;;;23.10;33.50;;;;;;5123938;27;20010;-60
2021/12/04 10:46:10;;;;;;;;;;;23.00;33.70;;;;;;5128954;27;19923;-54
2021/12/04 10:48:37;;;;;;;;;;;23.00;33.80;;;;;;5123524;27;19923;-52
2021/12/04 10:53:34;;;;;;;;;;;23.10;33.90;;;;;;5128830;27;20317;-61
2021/12/04 11:04:13;;;;;;;;;;;23.00;34.30;;;;;;5123314;27;19928;-54
2021/12/04 11:07:07;;;;;;;;;;;23.00;34.30;;;;;;5123517;27;19979;-49
2021/12/04 11:23:09;;;;;;;;;;;23.10;34.60;;;;;;5123299;27;19930;-57
2021/12/04 11:41:27;;;;;;;;;;;23.10;35.10;;;;;;5103797;27;19981;-54
2021/12/04 11:48:45;;;;;;;;;;;23.20;34.90;;;;;;5122086;27;19984;-49
2021/12/04 11:51:12;;;;;;;;;;;23.00;35.30;;;;;;5127674;27;20390;-55
2021/12/04 11:53:38;;;;;;;;;;;23.00;35.20;;;;;;5121723;27;19923;-56
2021/12/04 11:56:04;;;;;;;;;;;23.10;35.20;;;;;;5127083;27;20701;-57
2021/12/04 11:58:31;;;;;;;;;;;23.20;35.00;;;;;;5123548;27;20962;-56
2021/12/04 12:00:58;;;;;;;;;;;22.90;35.50;;;;;;5122285;27;20010;-54
2021/12/04 12:03:34;;;;;;;;;;;23.00;35.30;;;;;;5127525;27;20075;-52
2021/12/04 12:06:07;;;;;;;;;;;23.20;35.10;;;;;;5121845;27;20014;-57
2021/12/04 12:08:34;;;;;;;;;;;23.20;34.90;;;;;;5121957;27;19923;-56
2021/12/04 12:11:01;;;;;;;;;;;23.00;35.30;;;;;;5127329;27;20375;-53
2021/12/04 12:13:29;;;;;;;;;;;23.10;35.10;;;;;;5121931;27;19945;-54
2021/12/04 12:16:01;;;;;;;;;;;22.90;35.50;;;;;;5122223;27;20101;-51
2021/12/04 12:18:26;;;;;;;;;;;22.90;35.40;;;;;;5123340;27;20010;-55
2021/12/04 12:20:56;;;;;;;;;;;23.00;35.20;;;;;;5103574;27;19949;-56
2021/12/04 12:23:32;;;;;;;;;;;23.10;35.00;;;;;;5121798;27;19958;-55
2021/12/04 12:26:07;;;;;;;;;;;23.10;35.10;;;;;;5123087;27;19923;-60
2021/12/04 12:37:21;;;;;;;;;;;23.00;35.50;;;;;;5121547;27;20028;-52
2021/12/04 12:39:51;;;;;;;;;;;23.10;35.30;;;;;;5121601;27;19923;-60
2021/12/04 12:42:23;;;;;;;;;;;23.10;35.40;;;;;;5126840;27;19937;-55
2021/12/04 12:44:49;;;;;;;;;;;22.70;36.20;;;;;;5102886;27;20289;-51
2021/12/04 12:47:15;;;;;;;;;;;23.00;35.60;;;;;;5121307;27;19923;-58
2021/12/04 12:49:42;;;;;;;;;;;23.00;35.70;;;;;;5126130;27;19923;-52
2021/12/04 12:52:24;;;;;;;;;;;23.10;35.50;;;;;;5121715;27;19934;-57
2021/12/04 12:54:50;;;;;;;;;;;23.00;35.70;;;;;;5102929;27;19945;-54
2021/12/04 12:57:19;;;;;;;;;;;23.20;35.60;;;;;;5126833;27;19924;-59
2021/12/04 13:13:30;;;;;;;;;;;23.00;36.10;;;;;;5126545;27;20381;-52
2021/12/04 13:16:00;;;;;;;;;;;22.90;36.20;;;;;;5104317;28;19935;-56
2021/12/04 13:18:26;;;;;;;;;;;23.10;35.90;;;;;;5120966;27;20002;-54
2021/12/04 13:20:52;;;;;;;;;;;23.10;36.00;;;;;;5125990;27;19972;-58
2021/12/04 13:23:19;;;;;;;;;;;23.10;36.10;;;;;;5120986;28;20221;-53
2021/12/04 13:25:52;;;;;;;;;;;23.00;36.20;;;;;;5120430;28;20014;-54
2021/12/04 13:28:19;;;;;;;;;;;23.20;35.90;;;;;;5126336;28;19923;-55
2021/12/04 13:30:45;;;;;;;;;;;22.90;36.40;;;;;;5121001;28;20382;-54
2021/12/04 13:33:10;;;;;;;;;;;23.10;36.10;;;;;;5102690;28;20481;-54
2021/12/04 13:35:36;;;;;;;;;;;23.00;36.00;;;;;;5126513;28;19923;-61
2021/12/04 13:38:03;;;;;;;;;;;23.10;36.00;;;;;;5120654;28;20039;-52
2021/12/04 13:40:29;;;;;;;;;;;23.10;35.90;;;;;;5126050;28;19932;-54
2021/12/04 13:42:55;;;;;;;;;;;22.70;36.70;;;;;;5120619;28;19946;-56
2021/12/04 13:45:21;;;;;;;;;;;22.90;36.40;;;;;;5123071;27;19928;-60
2021/12/04 13:47:54;;;;;;;;;;;23.00;36.20;;;;;;5130472;27;19923;-53
2021/12/04 13:52:56;;;;;;;;;;;23.10;36.00;;;;;;5124650;27;19934;-56
2021/12/04 13:55:22;;;;;;;;;;;23.20;35.80;;;;;;5111946;27;19924;-55
2021/12/04 13:57:48;;;;;;;;;;;22.80;36.60;;;;;;5124182;27;19928;-51
2021/12/04 14:00:14;;;;;;;;;;;22.90;36.20;;;;;;5124355;27;19931;-54
2021/12/04 14:02:40;;;;;;;;;;;23.20;35.90;;;;;;5129673;27;19927;-62
2021/12/04 14:05:08;;;;;;;;;;;23.00;36.20;;;;;;5124618;27;19931;-53
2021/12/04 14:07:34;;;;;;;;;;;23.10;36.20;;;;;;5130023;27;19927;-54
2021/12/04 14:10:13;;;;;;;;;;;23.00;36.30;;;;;;5124217;27;20390;-53
2021/12/04 14:12:39;;;;;;;;;;;23.10;36.20;;;;;;5104499;27;20317;-57
2021/12/04 14:15:08;;;;;;;;;;;23.00;36.50;;;;;;5129620;27;20048;-51
2021/12/04 14:17:34;;;;;;;;;;;23.00;36.50;;;;;;5124019;27;20068;-62
2021/12/04 14:20:00;;;;;;;;;;;23.10;36.50;;;;;;5123935;27;19943;-52
2021/12/04 14:22:26;;;;;;;;;;;22.80;37.20;;;;;;5110479;27;19934;-54
2021/12/04 14:24:55;;;;;;;;;;;23.00;36.60;;;;;;5124312;27;19931;-54
2021/12/04 14:27:22;;;;;;;;;;;23.10;36.60;;;;;;5124662;27;20092;-60
2021/12/04 14:29:49;;;;;;;;;;;22.90;36.90;;;;;;5129424;27;19929;-53
2021/12/04 14:32:16;;;;;;;;;;;22.90;37.10;;;;;;5123931;27;20006;-52
2021/12/04 14:34:43;;;;;;;;;;;23.00;36.80;;;;;;5110852;27;19923;-60
2021/12/04 14:37:13;;;;;;;;;;;23.10;36.70;;;;;;5105351;27;19948;-56
2021/12/04 14:39:39;;;;;;;;;;;23.00;36.80;;;;;;5123430;27;19924;-55
2021/12/04 14:42:09;;;;;;;;;;;23.10;36.70;;;;;;5128884;27;19931;-62
2021/12/04 14:44:35;;;;;;;;;;;23.00;36.70;;;;;;5088566;27;19958;-52
2021/12/04 14:47:03;;;;;;;;;;;23.00;36.80;;;;;;5123627;27;20026;-51
2021/12/04 14:49:29;;;;;;;;;;;23.10;36.50;;;;;;5109378;27;19931;-56
2021/12/04 14:51:55;;;;;;;;;;;23.10;36.60;;;;;;5105030;27;19931;-53
2021/12/04 14:54:27;;;;;;;;;;;23.20;36.50;;;;;;5104443;27;19927;-50
2021/12/04 14:56:53;;;;;;;;;;;22.90;37.00;;;;;;5127396;27;19930;-54
2021/12/04 14:59:19;;;;;;;;;;;23.00;36.70;;;;;;5122863;27;19927;-58
2021/12/04 15:01:45;;;;;;;;;;;23.00;36.50;;;;;;5128909;27;19953;-56
2021/12/04 15:04:11;;;;;;;;;;;22.90;36.90;;;;;;5104910;27;19927;-54
2021/12/04 15:06:37;;;;;;;;;;;23.00;36.60;;;;;;5123415;27;20075;-49
2021/12/04 15:09:09;;;;;;;;;;;23.10;36.50;;;;;;5128675;27;19923;-57
2021/12/04 15:11:35;;;;;;;;;;;22.70;37.30;;;;;;5122872;27;19931;-54
2021/12/04 15:14:07;;;;;;;;;;;22.90;36.90;;;;;;5122942;27;20026;-56
2021/12/04 15:16:47;;;;;;;;;;;23.00;36.60;;;;;;5128249;27;20438;-57
2021/12/04 15:19:18;;;;;;;;;;;23.10;36.50;;;;;;5121187;27;19924;-51
2021/12/04 15:21:50;;;;;;;;;;;23.00;36.70;;;;;;5123272;27;20042;-51
2021/12/04 15:24:21;;;;;;;;;;;23.10;36.30;;;;;;5128494;27;19948;-54
2021/12/04 15:26:49;;;;;;;;;;;22.60;37.30;;;;;;5123313;27;19924;-51
2021/12/04 15:29:16;;;;;;;;;;;22.90;36.80;;;;;;5122723;27;19930;-51
2021/12/04 15:31:42;;;;;;;;;;;23.00;36.40;;;;;;5127860;27;20018;-56
2021/12/04 15:34:08;;;;;;;;;;;23.00;36.30;;;;;;5104197;27;20051;-56
2021/12/04 15:36:36;;;;;;;;;;;22.80;36.90;;;;;;5127666;27;20019;-55
2021/12/04 15:39:07;;;;;;;;;;;23.00;36.50;;;;;;5122971;27;19923;-52
2021/12/04 15:46:58;;;;;;;;;;;23.00;36.30;;;;;;5122396;27;20318;-51
2021/12/04 15:55:00;;;;;;;;;;;23.00;36.30;;;;;;5122385;27;20006;-59
2021/12/04 15:57:26;;;;;;;;;;;22.90;36.30;;;;;;5122479;27;20366;-58
2021/12/04 15:59:52;;;;;;;;;;;23.00;36.40;;;;;;5127873;27;19931;-54
2021/12/04 16:02:19;;;;;;;;;;;23.10;36.10;;;;;;5122419;27;19923;-53
2021/12/04 16:04:45;;;;;;;;;;;23.10;36.10;;;;;;5122139;27;20382;-50
2021/12/04 16:07:20;;;;;;;;;;;23.10;36.00;;;;;;5126890;27;19930;-56
2021/12/04 16:09:46;;;;;;;;;;;23.10;35.90;;;;;;5103867;27;19958;-55
2021/12/04 16:12:12;;;;;;;;;;;22.60;36.90;;;;;;5121660;27;19948;-56
2021/12/04 16:14:39;;;;;;;;;;;22.90;36.40;;;;;;5127273;27;20343;-54
2021/12/04 16:17:05;;;;;;;;;;;23.00;36.10;;;;;;5122148;27;19942;-52
2021/12/04 16:19:32;;;;;;;;;;;23.10;35.90;;;;;;5121758;27;19923;-53
2021/12/04 16:22:02;;;;;;;;;;;23.10;35.90;;;;;;5127288;27;19970;-60
2021/12/04 16:24:28;;;;;;;;;;;23.20;35.80;;;;;;5121948;27;19923;-56
2021/12/04 16:27:00;;;;;;;;;;;22.60;36.90;;;;;;5127151;27;19927;-55
2021/12/04 16:29:29;;;;;;;;;;;22.80;36.40;;;;;;5121750;27;20021;-54
2021/12/04 16:32:13;;;;;;;;;;;22.90;36.20;;;;;;5120839;27;20022;-53
2021/12/04 16:37:38;;;;;;;;;;;23.00;35.90;;;;;;5127141;27;19930;-49
2021/12/04 16:40:05;;;;;;;;;;;23.10;35.70;;;;;;5121955;27;19949;-51
2021/12/04 16:42:31;;;;;;;;;;;22.80;36.10;;;;;;5126069;27;19935;-58
2021/12/04 16:44:57;;;;;;;;;;;23.00;35.90;;;;;;5122306;27;20426;-54
2021/12/04 16:47:25;;;;;;;;;;;23.10;35.60;;;;;;5121349;27;19924;-52
2021/12/04 16:49:51;;;;;;;;;;;23.10;35.50;;;;;;5126337;27;20382;-54
2021/12/04 16:55:19;;;;;;;;;;;23.00;35.60;;;;;;5121381;27;20305;-55
2021/12/04 16:57:58;;;;;;;;;;;23.20;35.40;;;;;;5126800;27;20400;-56
2021/12/04 17:00:23;;;;;;;;;;;23.00;35.60;;;;;;5117642;27;20367;-52
2021/12/04 17:02:49;;;;;;;;;;;23.10;35.50;;;;;;5120914;27;19971;-62
2021/12/04 17:05:15;;;;;;;;;;;23.00;35.50;;;;;;5126198;27;20008;-55
2021/12/04 17:07:41;;;;;;;;;;;22.80;36.00;;;;;;5120718;27;19930;-56
2021/12/04 17:10:08;;;;;;;;;;;22.90;35.80;;;;;;5120619;27;19928;-54
2021/12/04 17:12:36;;;;;;;;;;;23.00;35.60;;;;;;5126817;27;19988;-51
2021/12/04 17:15:07;;;;;;;;;;;23.10;35.40;;;;;;5121193;27;20067;-52
2021/12/04 17:17:36;;;;;;;;;;;23.10;35.40;;;;;;5121072;27;20442;-57
2021/12/04 17:20:03;;;;;;;;;;;23.00;35.70;;;;;;5125353;27;19923;-56
2021/12/04 17:22:29;;;;;;;;;;;23.00;35.60;;;;;;5120934;27;19929;-52
2021/12/04 17:24:55;;;;;;;;;;;22.90;35.70;;;;;;5126288;28;20309;-52
2021/12/04 17:27:20;;;;;;;;;;;23.00;35.60;;;;;;5120347;28;19938;-55
2021/12/04 17:29:51;;;;;;;;;;;23.00;35.30;;;;;;5121042;28;20271;-61
2021/12/04 17:32:16;;;;;;;;;;;23.00;35.30;;;;;;5126464;28;19928;-57
2021/12/04 17:34:42;;;;;;;;;;;22.90;35.60;;;;;;5120733;28;19931;-52
2021/12/04 17:37:08;;;;;;;;;;;23.00;35.40;;;;;;5120817;28;20028;-53
2021/12/04 17:39:34;;;;;;;;;;;23.10;35.30;;;;;;5125889;28;20048;-59
2021/12/04 17:42:00;;;;;;;;;;;23.00;35.30;;;;;;5120481;28;19934;-52
2021/12/04 17:44:26;;;;;;;;;;;22.80;35.70;;;;;;5125673;28;20333;-58
2021/12/04 17:46:52;;;;;;;;;;;23.00;35.40;;;;;;5120499;28;19934;-59